createdAt,value
2022-11-21T00:02:01.106Z,93.00
2022-11-21T00:06:59.232Z,91.82
2022-11-21T00:11:56.352Z,91.80
2022-11-21T00:16:57.304Z,91.78
2022-11-21T00:21:54.697Z,92.84
2022-11-21T00:26:52.377Z,93.19
2022-11-21T00:31:49.458Z,93.84
2022-11-21T00:36:47.247Z,94.08
2022-11-21T00:41:44.581Z,94.85
2022-11-21T00:46:42.428Z,94.36
2022-11-21T00:51:39.732Z,93.28
2022-11-21T00:56:36.560Z,93.05
2022-11-21T01:01:33.753Z,93.58
2022-11-21T01:06:31.680Z,94.41
2022-11-21T01:11:28.727Z,95.31
2022-11-21T01:16:28.516Z,95.88
2022-11-21T01:21:28.103Z,96.94
2022-11-21T01:26:27.660Z,96.53
2022-11-21T01:31:26.983Z,97.51
2022-11-21T01:36:26.206Z,97.46
2022-11-21T01:41:26.239Z,95.20
2022-11-21T01:46:24.831Z,94.28
2022-11-21T01:51:28.798Z,94.69
2022-11-21T01:56:29.114Z,93.44
2022-11-21T02:01:27.686Z,92.99
2022-11-21T02:06:25.981Z,93.37
2022-11-21T02:11:30.846Z,92.78
2022-11-21T02:16:29.080Z,92.70
2022-11-21T02:21:39.658Z,91.92
2022-11-21T02:26:38.417Z,92.31
2022-11-21T02:31:35.944Z,91.25
2022-11-21T02:36:41.855Z,91.80
2022-11-21T02:41:47.066Z,92.63
2022-11-21T02:46:49.275Z,92.89
2022-11-21T02:51:46.343Z,93.14
2022-11-21T02:56:44.430Z,93.38
2022-11-21T03:01:41.353Z,93.69
2022-11-21T03:06:38.750Z,93.54
2022-11-21T03:11:36.013Z,93.73
2022-11-21T03:16:33.909Z,94.63
2022-11-21T03:21:38.630Z,94.87
2022-11-21T03:26:38.451Z,95.20
2022-11-21T03:31:36.368Z,95.23
2022-11-21T03:36:36.366Z,95.50
2022-11-21T03:41:34.592Z,95.19
2022-11-21T03:46:33.523Z,95.71
2022-11-21T03:51:31.688Z,96.22
2022-11-21T03:56:29.376Z,94.90
2022-11-21T04:01:26.834Z,95.48
2022-11-21T04:06:24.250Z,96.08
2022-11-21T04:11:24.083Z,95.61
2022-11-21T04:16:21.347Z,93.13
2022-11-21T04:21:18.396Z,90.39
2022-11-21T04:26:15.490Z,88.55
2022-11-21T04:31:13.673Z,88.93
2022-11-21T04:36:10.680Z,90.10
2022-11-21T04:41:07.920Z,91.42
2022-11-21T04:46:05.052Z,91.57
2022-11-21T04:51:02.981Z,92.98
2022-11-21T04:56:03.801Z,93.14
2022-11-21T05:01:06.648Z,93.82
2022-11-21T05:06:05.058Z,94.02
2022-11-21T05:11:19.972Z,93.67
2022-11-21T05:16:17.143Z,94.11
2022-11-21T05:21:15.075Z,94.55
2022-11-21T05:26:12.173Z,94.90
2022-11-21T05:31:09.278Z,95.00
2022-11-21T05:36:06.678Z,95.10
2022-11-21T05:41:04.262Z,95.16
2022-11-21T05:46:01.265Z,95.30
2022-11-21T05:50:58.208Z,95.80
2022-11-21T05:55:55.237Z,96.47
2022-11-21T06:00:59.940Z,95.66
2022-11-21T06:06:02.483Z,95.53
2022-11-21T06:10:59.536Z,94.69
2022-11-21T06:16:01.214Z,94.36
2022-11-21T06:21:01.971Z,94.17
2022-11-21T06:26:00.606Z,93.30
2022-11-21T06:31:02.020Z,91.79
2022-11-21T06:36:03.056Z,91.25
2022-11-21T06:41:04.453Z,91.47
2022-11-21T06:46:02.756Z,91.31
2022-11-21T06:51:05.672Z,90.96
2022-11-21T06:56:03.659Z,90.56
2022-11-21T07:01:04.246Z,90.45
2022-11-21T07:06:01.681Z,90.86
2022-11-21T07:16:25.453Z,90.32
2022-11-21T07:21:22.654Z,90.41
2022-11-21T07:26:20.506Z,90.02
2022-11-21T07:31:17.583Z,90.57
2022-11-21T07:36:14.575Z,90.44
2022-11-21T07:41:11.647Z,88.45
2022-11-21T07:46:16.033Z,88.03
2022-11-21T07:51:13.103Z,87.65
2022-11-21T07:56:10.472Z,88.02
2022-11-21T08:01:07.855Z,88.23
2022-11-21T08:06:05.484Z,88.31
2022-11-21T08:11:05.352Z,88.32
2022-11-21T08:16:03.653Z,87.99
2022-11-21T08:21:01.670Z,87.85
2022-11-21T08:25:59.521Z,87.38
2022-11-21T08:30:56.534Z,86.74
2022-11-21T08:35:56.509Z,86.07
2022-11-21T08:41:07.885Z,85.20
2022-11-21T08:46:05.826Z,84.72
2022-11-21T08:51:02.892Z,84.80
2022-11-21T08:56:03.934Z,84.76
2022-11-21T09:01:01.335Z,84.50
2022-11-21T09:05:59.393Z,84.35
2022-11-21T09:10:56.598Z,83.61
2022-11-21T09:16:13.409Z,82.89
2022-11-21T09:21:15.717Z,82.61
2022-11-21T09:26:12.748Z,82.69
2022-11-21T09:31:09.819Z,82.30
2022-11-21T09:36:06.803Z,82.49
2022-11-21T09:41:36.506Z,82.52
2022-11-21T09:46:40.889Z,82.80
2022-11-21T09:51:39.825Z,82.61
2022-11-21T09:56:41.342Z,82.28
2022-11-21T10:01:38.637Z,82.21
2022-11-21T10:06:42.317Z,82.29
2022-11-21T10:12:07.315Z,82.02
2022-11-21T10:17:16.488Z,82.07
2022-11-21T10:22:36.232Z,81.69
2022-11-21T10:27:40.782Z,81.64
2022-11-21T10:32:41.319Z,81.62
2022-11-21T10:37:40.359Z,81.44
2022-11-21T10:42:46.092Z,81.42
2022-11-21T10:47:44.805Z,81.08
2022-11-21T10:52:55.629Z,81.08
2022-11-21T10:57:54.774Z,81.02
2022-11-21T11:03:06.952Z,80.79
2022-11-21T11:08:07.288Z,80.68
2022-11-21T11:13:45.977Z,79.39
2022-11-21T11:18:52.234Z,79.76
2022-11-21T11:23:57.368Z,80.28
2022-11-21T11:29:09.637Z,80.27
2022-11-21T11:34:12.525Z,80.73
2022-11-21T11:39:20.657Z,80.78
2022-11-21T11:44:47.091Z,81.48
2022-11-21T11:50:07.019Z,81.81
2022-11-21T11:55:07.986Z,82.08
2022-11-21T12:00:22.500Z,82.25
2022-11-21T12:05:25.138Z,81.92
2022-11-21T12:10:27.530Z,81.81
2022-11-21T12:15:49.339Z,82.04
2022-11-21T12:20:56.054Z,82.26
2022-11-21T12:26:06.018Z,82.10
2022-11-21T12:31:14.958Z,82.03
2022-11-21T12:36:22.646Z,81.59
2022-11-21T12:41:46.032Z,80.92
2022-11-21T12:46:57.544Z,80.71
2022-11-21T12:52:27.398Z,80.33
2022-11-21T12:57:35.588Z,80.05
2022-11-21T13:02:48.580Z,78.61
2022-11-21T13:07:46.669Z,79.29
2022-11-21T13:12:48.307Z,79.75
2022-11-21T13:17:53.929Z,79.70
2022-11-21T13:22:52.931Z,79.69
2022-11-21T13:27:49.940Z,79.83
2022-11-21T13:32:53.246Z,79.79
2022-11-21T13:38:01.637Z,79.22
2022-11-21T13:43:33.397Z,79.19
2022-11-21T13:48:55.042Z,79.20
2022-11-21T13:54:26.207Z,78.67
2022-11-21T13:59:39.838Z,78.65
2022-11-21T14:04:54.586Z,78.76
2022-11-21T14:09:52.774Z,77.80
2022-11-21T14:14:53.589Z,77.60
2022-11-21T14:19:54.809Z,77.34
2022-11-21T14:24:55.630Z,76.82
2022-11-21T14:29:52.510Z,75.90
2022-11-21T14:34:49.410Z,76.58
2022-11-21T14:39:52.717Z,76.66
2022-11-21T14:45:07.176Z,77.00
2022-11-21T14:50:07.504Z,77.08
2022-11-21T14:55:28.992Z,77.13
2022-11-21T15:06:06.449Z,77.63
2022-11-21T15:11:08.452Z,77.83
2022-11-21T15:16:07.313Z,78.39
2022-11-21T15:21:04.975Z,78.30
2022-11-21T15:26:02.850Z,78.17
2022-11-21T15:31:18.277Z,77.48
2022-11-21T15:36:15.492Z,78.24
2022-11-21T15:41:31.498Z,77.86
2022-11-21T15:46:31.336Z,78.48
2022-11-21T15:51:59.579Z,78.61
2022-11-21T15:56:49.921Z,78.50
2022-11-21T16:01:47.868Z,78.61
2022-11-21T16:06:45.286Z,78.76
2022-11-21T16:11:43.307Z,78.09
2022-11-21T16:16:43.699Z,78.17
2022-11-21T16:21:42.712Z,78.37
2022-11-21T16:26:40.447Z,78.59
2022-11-21T16:31:44.756Z,78.26
2022-11-21T16:36:44.993Z,78.39
2022-11-21T16:41:43.881Z,78.07
2022-11-21T16:46:43.445Z,78.08
2022-11-21T16:51:41.372Z,78.08
2022-11-21T16:56:40.221Z,78.13
2022-11-21T17:01:37.637Z,78.10
2022-11-21T17:06:35.431Z,78.35
2022-11-21T17:11:34.176Z,78.04
2022-11-21T17:16:32.987Z,78.11
2022-11-21T17:21:31.007Z,78.15
2022-11-21T17:26:29.731Z,78.00
2022-11-21T17:31:27.590Z,77.92
2022-11-21T17:36:28.268Z,77.73
2022-11-21T17:41:28.748Z,78.07
2022-11-21T17:46:26.331Z,77.75
2022-11-21T17:51:29.614Z,77.93
2022-11-21T17:56:29.550Z,77.73
2022-11-21T18:01:27.877Z,77.62
2022-11-21T18:06:29.405Z,77.30
2022-11-21T18:11:33.215Z,77.17
2022-11-21T18:16:35.524Z,77.28
2022-11-21T18:21:35.763Z,77.10
2022-11-21T18:26:35.462Z,76.92
2022-11-21T18:31:33.623Z,76.75
2022-11-21T18:36:32.295Z,76.83
2022-11-21T18:41:33.627Z,76.98
2022-11-21T18:46:34.856Z,76.43
2022-11-21T18:51:32.764Z,75.67
2022-11-21T18:56:31.134Z,75.41
2022-11-21T19:01:29.349Z,75.69
2022-11-21T19:06:27.882Z,74.68
2022-11-21T19:11:26.867Z,75.53
2022-11-21T19:16:27.607Z,75.30
2022-11-21T19:21:25.485Z,75.59
2022-11-21T19:26:23.466Z,75.29
2022-11-21T19:31:21.601Z,75.32
2022-11-21T19:36:24.129Z,75.02
2022-11-21T19:41:25.580Z,75.09
2022-11-21T19:46:26.162Z,74.91
2022-11-21T19:51:28.894Z,75.10
2022-11-21T19:56:26.974Z,75.08
2022-11-21T20:01:25.701Z,75.02
2022-11-21T20:06:25.412Z,75.42
2022-11-21T20:11:24.113Z,74.75
2022-11-21T20:16:23.740Z,74.75
2022-11-21T20:21:21.661Z,74.89
2022-11-21T20:26:25.965Z,74.71
2022-11-21T20:31:37.685Z,75.27
2022-11-21T20:36:39.734Z,75.17
2022-11-21T20:41:37.815Z,75.18
2022-11-21T20:46:42.683Z,74.27
2022-11-21T20:57:01.347Z,74.61
2022-11-21T21:01:58.394Z,74.84
2022-11-21T21:06:55.637Z,74.62
2022-11-21T21:11:53.633Z,74.27
2022-11-21T21:16:51.471Z,73.97
2022-11-21T21:21:48.629Z,74.28
2022-11-21T21:26:47.447Z,74.23
2022-11-21T21:31:50.568Z,73.92
2022-11-21T21:36:49.661Z,73.66
2022-11-21T21:41:47.721Z,73.82
2022-11-21T21:46:45.580Z,73.39
2022-11-21T21:51:42.535Z,73.27
2022-11-21T21:56:40.667Z,73.30
2022-11-21T22:01:37.780Z,73.03
2022-11-21T22:06:35.658Z,73.30
2022-11-21T22:11:36.546Z,73.48
2022-11-21T22:16:34.140Z,73.28
2022-11-21T22:21:33.136Z,73.45
2022-11-21T22:26:30.405Z,73.28
2022-11-21T22:31:30.101Z,73.60
2022-11-21T22:36:28.934Z,73.40
2022-11-21T22:41:27.340Z,73.60
2022-11-21T22:46:25.211Z,73.55
2022-11-21T22:51:23.926Z,73.63
2022-11-21T22:56:23.906Z,73.68
2022-11-21T23:01:22.804Z,73.84
2022-11-21T23:06:22.950Z,73.79
2022-11-21T23:11:22.412Z,73.39
2022-11-21T23:16:19.569Z,73.57
2022-11-21T23:21:16.440Z,73.53
2022-11-21T23:26:13.976Z,73.36
2022-11-21T23:31:11.548Z,73.72
2022-11-21T23:36:08.413Z,73.79
2022-11-21T23:41:05.358Z,73.93
2022-11-21T23:46:02.232Z,74.07
2022-11-21T23:50:59.839Z,73.82
2022-11-21T23:55:56.807Z,74.36
